sensor_id;sensor_type;location;lat;lon;timestamp;P1;durP1;ratioP1;P2;durP2;ratioP2
5819;SDS011;2936;47.348;9.640;2023-07-16T00:00:04;5.87;;;4.37;;
5819;SDS011;2936;47.348;9.640;2023-07-16T00:02:33;4.93;;;4.40;;
5819;SDS011;2936;47.348;9.640;2023-07-16T00:05:01;5.43;;;4.63;;
5819;SDS011;2936;47.348;9.640;2023-07-16T00:07:28;6.97;;;4.70;;
5819;SDS011;2936;47.348;9.640;2023-07-16T00:09:55;6.60;;;4.87;;
5819;SDS011;2936;47.348;9.640;2023-07-16T00:12:23;6.83;;;4.50;;
5819;SDS011;2936;47.348;9.640;2023-07-16T00:14:50;5.30;;;4.37;;
5819;SDS011;2936;47.348;9.640;2023-07-16T00:17:19;5.73;;;4.13;;
5819;SDS011;2936;47.348;9.640;2023-07-16T00:19:46;6.53;;;3.67;;
5819;SDS011;2936;47.348;9.640;2023-07-16T00:22:13;3.07;;;2.87;;
5819;SDS011;2936;47.348;9.640;2023-07-16T00:24:41;2.67;;;2.50;;
5819;SDS011;2936;47.348;9.640;2023-07-16T00:27:08;4.40;;;2.37;;
5819;SDS011;2936;47.348;9.640;2023-07-16T00:29:35;2.43;;;2.33;;
5819;SDS011;2936;47.348;9.640;2023-07-16T00:32:03;4.70;;;3.43;;
5819;SDS011;2936;47.348;9.640;2023-07-16T00:34:31;3.30;;;2.93;;
5819;SDS011;2936;47.348;9.640;2023-07-16T00:37:00;3.00;;;2.80;;
5819;SDS011;2936;47.348;9.640;2023-07-16T00:39:30;3.50;;;3.20;;
5819;SDS011;2936;47.348;9.640;2023-07-16T00:42:04;4.30;;;3.90;;
5819;SDS011;2936;47.348;9.640;2023-07-16T00:44:31;2.97;;;2.77;;
5819;SDS011;2936;47.348;9.640;2023-07-16T00:46:59;3.40;;;3.20;;
5819;SDS011;2936;47.348;9.640;2023-07-16T00:49:26;5.23;;;3.20;;
5819;SDS011;2936;47.348;9.640;2023-07-16T00:51:55;3.17;;;2.80;;
5819;SDS011;2936;47.348;9.640;2023-07-16T00:54:23;4.47;;;3.50;;
5819;SDS011;2936;47.348;9.640;2023-07-16T00:56:51;3.20;;;3.10;;
5819;SDS011;2936;47.348;9.640;2023-07-16T00:59:18;3.73;;;3.43;;
5819;SDS011;2936;47.348;9.640;2023-07-16T01:01:45;4.10;;;3.63;;
5819;SDS011;2936;47.348;9.640;2023-07-16T01:04:12;3.23;;;2.83;;
5819;SDS011;2936;47.348;9.640;2023-07-16T01:06:40;2.77;;;2.57;;
5819;SDS011;2936;47.348;9.640;2023-07-16T01:09:10;2.30;;;2.10;;
5819;SDS011;2936;47.348;9.640;2023-07-16T01:11:38;1.67;;;1.57;;
5819;SDS011;2936;47.348;9.640;2023-07-16T01:14:07;1.80;;;1.70;;
5819;SDS011;2936;47.348;9.640;2023-07-16T01:16:34;1.67;;;1.57;;
5819;SDS011;2936;47.348;9.640;2023-07-16T01:19:02;1.70;;;1.60;;
5819;SDS011;2936;47.348;9.640;2023-07-16T01:21:31;1.80;;;1.70;;
5819;SDS011;2936;47.348;9.640;2023-07-16T01:24:05;1.70;;;1.60;;
5819;SDS011;2936;47.348;9.640;2023-07-16T01:26:46;4.37;;;1.70;;
5819;SDS011;2936;47.348;9.640;2023-07-16T01:29:27;1.83;;;1.70;;
5819;SDS011;2936;47.348;9.640;2023-07-16T01:31:55;3.40;;;1.50;;
5819;SDS011;2936;47.348;9.640;2023-07-16T01:34:23;1.80;;;1.70;;
5819;SDS011;2936;47.348;9.640;2023-07-16T01:36:51;3.27;;;2.00;;
5819;SDS011;2936;47.348;9.640;2023-07-16T01:39:19;1.30;;;1.30;;
5819;SDS011;2936;47.348;9.640;2023-07-16T01:41:46;1.60;;;1.50;;
5819;SDS011;2936;47.348;9.640;2023-07-16T01:44:14;1.33;;;1.30;;
5819;SDS011;2936;47.348;9.640;2023-07-16T01:46:42;1.70;;;1.60;;
5819;SDS011;2936;47.348;9.640;2023-07-16T01:49:10;1.60;;;1.50;;
5819;SDS011;2936;47.348;9.640;2023-07-16T01:51:38;1.90;;;1.80;;
5819;SDS011;2936;47.348;9.640;2023-07-16T01:54:06;2.70;;;1.70;;
5819;SDS011;2936;47.348;9.640;2023-07-16T01:56:33;1.50;;;1.40;;
5819;SDS011;2936;47.348;9.640;2023-07-16T01:59:00;1.70;;;1.60;;
5819;SDS011;2936;47.348;9.640;2023-07-16T02:01:27;1.57;;;1.50;;
5819;SDS011;2936;47.348;9.640;2023-07-16T02:03:56;2.40;;;1.87;;
5819;SDS011;2936;47.348;9.640;2023-07-16T02:06:24;1.87;;;1.77;;
5819;SDS011;2936;47.348;9.640;2023-07-16T02:08:51;1.83;;;1.73;;
5819;SDS011;2936;47.348;9.640;2023-07-16T02:11:18;1.70;;;1.60;;
5819;SDS011;2936;47.348;9.640;2023-07-16T02:13:46;1.70;;;1.60;;
5819;SDS011;2936;47.348;9.640;2023-07-16T02:16:13;2.03;;;1.87;;
5819;SDS011;2936;47.348;9.640;2023-07-16T02:18:40;3.73;;;2.83;;
5819;SDS011;2936;47.348;9.640;2023-07-16T02:21:09;2.53;;;1.80;;
5819;SDS011;2936;47.348;9.640;2023-07-16T02:23:36;1.93;;;1.83;;
5819;SDS011;2936;47.348;9.640;2023-07-16T02:26:04;2.47;;;2.27;;
5819;SDS011;2936;47.348;9.640;2023-07-16T02:28:31;3.83;;;2.20;;
5819;SDS011;2936;47.348;9.640;2023-07-16T02:30:58;2.30;;;2.20;;
5819;SDS011;2936;47.348;9.640;2023-07-16T02:33:26;5.63;;;3.03;;
5819;SDS011;2936;47.348;9.640;2023-07-16T02:35:53;3.33;;;2.03;;
5819;SDS011;2936;47.348;9.640;2023-07-16T02:38:21;2.70;;;2.50;;
5819;SDS011;2936;47.348;9.640;2023-07-16T02:40:49;2.67;;;2.50;;
5819;SDS011;2936;47.348;9.640;2023-07-16T02:43:16;2.03;;;1.93;;
5819;SDS011;2936;47.348;9.640;2023-07-16T02:45:43;1.90;;;1.80;;
5819;SDS011;2936;47.348;9.640;2023-07-16T02:48:11;2.30;;;2.20;;
5819;SDS011;2936;47.348;9.640;2023-07-16T02:50:38;2.40;;;2.30;;
5819;SDS011;2936;47.348;9.640;2023-07-16T02:53:06;2.37;;;2.07;;
5819;SDS011;2936;47.348;9.640;2023-07-16T02:55:35;2.07;;;1.97;;
5819;SDS011;2936;47.348;9.640;2023-07-16T02:58:02;2.20;;;1.80;;
5819;SDS011;2936;47.348;9.640;2023-07-16T03:00:30;1.93;;;1.83;;
5819;SDS011;2936;47.348;9.640;2023-07-16T03:02:57;3.10;;;1.90;;
5819;SDS011;2936;47.348;9.640;2023-07-16T03:05:25;3.90;;;2.80;;
5819;SDS011;2936;47.348;9.640;2023-07-16T03:07:52;2.20;;;2.10;;
5819;SDS011;2936;47.348;9.640;2023-07-16T03:10:19;2.23;;;2.07;;
5819;SDS011;2936;47.348;9.640;2023-07-16T03:12:48;2.30;;;2.20;;
5819;SDS011;2936;47.348;9.640;2023-07-16T03:15:16;2.00;;;1.90;;
5819;SDS011;2936;47.348;9.640;2023-07-16T03:17:43;2.60;;;2.50;;
5819;SDS011;2936;47.348;9.640;2023-07-16T03:20:10;2.50;;;2.40;;
5819;SDS011;2936;47.348;9.640;2023-07-16T03:22:38;2.23;;;2.13;;
5819;SDS011;2936;47.348;9.640;2023-07-16T03:25:06;2.37;;;2.27;;
5819;SDS011;2936;47.348;9.640;2023-07-16T03:27:33;3.33;;;2.13;;
5819;SDS011;2936;47.348;9.640;2023-07-16T03:30:02;3.67;;;2.17;;
5819;SDS011;2936;47.348;9.640;2023-07-16T03:32:30;2.27;;;2.17;;
5819;SDS011;2936;47.348;9.640;2023-07-16T03:34:57;7.30;;;2.17;;
5819;SDS011;2936;47.348;9.640;2023-07-16T03:37:25;2.57;;;2.40;;
5819;SDS011;2936;47.348;9.640;2023-07-16T03:39:52;2.33;;;2.23;;
5819;SDS011;2936;47.348;9.640;2023-07-16T03:42:19;3.20;;;2.40;;
5819;SDS011;2936;47.348;9.640;2023-07-16T03:44:47;2.37;;;2.27;;
5819;SDS011;2936;47.348;9.640;2023-07-16T03:47:16;2.30;;;2.20;;
5819;SDS011;2936;47.348;9.640;2023-07-16T03:49:43;2.87;;;2.67;;
5819;SDS011;2936;47.348;9.640;2023-07-16T03:52:10;3.03;;;2.83;;
5819;SDS011;2936;47.348;9.640;2023-07-16T03:54:37;2.50;;;2.40;;
5819;SDS011;2936;47.348;9.640;2023-07-16T03:57:05;2.37;;;2.27;;
5819;SDS011;2936;47.348;9.640;2023-07-16T03:59:45;2.67;;;2.57;;
5819;SDS011;2936;47.348;9.640;2023-07-16T04:02:12;2.50;;;2.30;;
5819;SDS011;2936;47.348;9.640;2023-07-16T04:04:41;2.83;;;2.73;;
5819;SDS011;2936;47.348;9.640;2023-07-16T04:07:08;2.57;;;2.37;;
5819;SDS011;2936;47.348;9.640;2023-07-16T04:09:36;2.90;;;2.73;;
5819;SDS011;2936;47.348;9.640;2023-07-16T04:12:04;3.47;;;3.17;;
5819;SDS011;2936;47.348;9.640;2023-07-16T04:14:32;2.67;;;2.57;;
5819;SDS011;2936;47.348;9.640;2023-07-16T04:16:59;2.43;;;2.33;;
5819;SDS011;2936;47.348;9.640;2023-07-16T04:19:26;2.30;;;2.20;;
5819;SDS011;2936;47.348;9.640;2023-07-16T04:21:55;2.27;;;2.07;;
5819;SDS011;2936;47.348;9.640;2023-07-16T04:24:22;2.30;;;2.20;;
5819;SDS011;2936;47.348;9.640;2023-07-16T04:26:52;2.33;;;2.23;;
5819;SDS011;2936;47.348;9.640;2023-07-16T04:29:19;2.67;;;2.57;;
5819;SDS011;2936;47.348;9.640;2023-07-16T04:31:46;2.60;;;2.50;;
5819;SDS011;2936;47.348;9.640;2023-07-16T04:34:14;2.30;;;2.20;;
5819;SDS011;2936;47.348;9.640;2023-07-16T04:36:41;2.57;;;2.47;;
5819;SDS011;2936;47.348;9.640;2023-07-16T04:39:10;2.33;;;2.20;;
5819;SDS011;2936;47.348;9.640;2023-07-16T04:41:37;2.50;;;2.40;;
5819;SDS011;2936;47.348;9.640;2023-07-16T04:44:05;1.93;;;1.83;;
5819;SDS011;2936;47.348;9.640;2023-07-16T04:46:32;2.53;;;2.33;;
5819;SDS011;2936;47.348;9.640;2023-07-16T04:49:00;2.30;;;2.20;;
5819;SDS011;2936;47.348;9.640;2023-07-16T04:51:28;2.43;;;2.33;;
5819;SDS011;2936;47.348;9.640;2023-07-16T04:53:55;2.23;;;2.13;;
5819;SDS011;2936;47.348;9.640;2023-07-16T04:56:24;2.27;;;2.13;;
5819;SDS011;2936;47.348;9.640;2023-07-16T04:58:51;3.13;;;2.00;;
5819;SDS011;2936;47.348;9.640;2023-07-16T05:01:18;2.30;;;2.20;;
5819;SDS011;2936;47.348;9.640;2023-07-16T05:03:46;2.00;;;1.90;;
5819;SDS011;2936;47.348;9.640;2023-07-16T05:06:13;2.57;;;2.03;;
5819;SDS011;2936;47.348;9.640;2023-07-16T05:08:41;4.60;;;2.40;;
5819;SDS011;2936;47.348;9.640;2023-07-16T05:11:09;2.40;;;2.30;;
5819;SDS011;2936;47.348;9.640;2023-07-16T05:13:38;2.73;;;2.53;;
5819;SDS011;2936;47.348;9.640;2023-07-16T05:16:05;4.90;;;2.10;;
5819;SDS011;2936;47.348;9.640;2023-07-16T05:18:32;2.30;;;2.20;;
5819;SDS011;2936;47.348;9.640;2023-07-16T05:21:00;1.93;;;1.83;;
5819;SDS011;2936;47.348;9.640;2023-07-16T05:23:27;2.17;;;2.07;;
5819;SDS011;2936;47.348;9.640;2023-07-16T05:25:55;1.90;;;1.80;;
5819;SDS011;2936;47.348;9.640;2023-07-16T05:28:22;2.17;;;2.07;;
5819;SDS011;2936;47.348;9.640;2023-07-16T05:30:58;2.67;;;2.57;;
5819;SDS011;2936;47.348;9.640;2023-07-16T05:33:25;2.43;;;2.30;;
5819;SDS011;2936;47.348;9.640;2023-07-16T05:35:53;2.23;;;2.13;;
5819;SDS011;2936;47.348;9.640;2023-07-16T05:38:20;2.37;;;2.27;;
5819;SDS011;2936;47.348;9.640;2023-07-16T05:40:47;2.10;;;2.00;;
5819;SDS011;2936;47.348;9.640;2023-07-16T05:43:15;2.40;;;2.20;;
5819;SDS011;2936;47.348;9.640;2023-07-16T05:45:42;2.50;;;2.30;;
5819;SDS011;2936;47.348;9.640;2023-07-16T05:48:11;2.27;;;2.17;;
5819;SDS011;2936;47.348;9.640;2023-07-16T05:50:38;2.40;;;2.30;;
5819;SDS011;2936;47.348;9.640;2023-07-16T05:53:05;2.67;;;2.53;;
5819;SDS011;2936;47.348;9.640;2023-07-16T05:55:33;2.80;;;2.60;;
5819;SDS011;2936;47.348;9.640;2023-07-16T05:58:00;2.60;;;2.40;;
5819;SDS011;2936;47.348;9.640;2023-07-16T06:00:28;2.60;;;2.50;;
5819;SDS011;2936;47.348;9.640;2023-07-16T06:02:56;4.30;;;2.40;;
5819;SDS011;2936;47.348;9.640;2023-07-16T06:05:24;1.90;;;1.80;;
5819;SDS011;2936;47.348;9.640;2023-07-16T06:07:52;4.07;;;2.00;;
5819;SDS011;2936;47.348;9.640;2023-07-16T06:10:19;2.30;;;2.20;;
5819;SDS011;2936;47.348;9.640;2023-07-16T06:12:47;2.30;;;2.20;;
5819;SDS011;2936;47.348;9.640;2023-07-16T06:15:14;4.73;;;2.20;;
5819;SDS011;2936;47.348;9.640;2023-07-16T06:17:44;2.40;;;2.20;;
5819;SDS011;2936;47.348;9.640;2023-07-16T06:20:21;2.53;;;2.43;;
5819;SDS011;2936;47.348;9.640;2023-07-16T06:22:50;2.23;;;2.13;;
5819;SDS011;2936;47.348;9.640;2023-07-16T06:25:17;7.80;;;2.80;;
5819;SDS011;2936;47.348;9.640;2023-07-16T06:27:45;2.43;;;2.30;;
5819;SDS011;2936;47.348;9.640;2023-07-16T06:30:12;2.30;;;2.20;;
5819;SDS011;2936;47.348;9.640;2023-07-16T06:32:39;2.17;;;2.07;;
5819;SDS011;2936;47.348;9.640;2023-07-16T06:35:07;2.00;;;1.90;;
5819;SDS011;2936;47.348;9.640;2023-07-16T06:37:34;2.97;;;2.77;;
5819;SDS011;2936;47.348;9.640;2023-07-16T06:40:03;2.27;;;2.17;;
5819;SDS011;2936;47.348;9.640;2023-07-16T06:42:31;2.33;;;2.23;;
5819;SDS011;2936;47.348;9.640;2023-07-16T06:44:58;2.23;;;2.03;;
5819;SDS011;2936;47.348;9.640;2023-07-16T06:47:25;2.20;;;2.10;;
5819;SDS011;2936;47.348;9.640;2023-07-16T06:49:53;2.37;;;2.27;;
5819;SDS011;2936;47.348;9.640;2023-07-16T06:52:20;2.47;;;2.27;;
5819;SDS011;2936;47.348;9.640;2023-07-16T06:54:47;2.13;;;2.03;;
5819;SDS011;2936;47.348;9.640;2023-07-16T06:57:16;2.20;;;2.10;;
5819;SDS011;2936;47.348;9.640;2023-07-16T07:00:01;2.30;;;2.20;;
5819;SDS011;2936;47.348;9.640;2023-07-16T07:02:40;2.03;;;1.93;;
5819;SDS011;2936;47.348;9.640;2023-07-16T07:05:09;2.20;;;2.10;;
5819;SDS011;2936;47.348;9.640;2023-07-16T07:07:36;2.73;;;2.53;;
5819;SDS011;2936;47.348;9.640;2023-07-16T07:10:04;2.40;;;2.30;;
5819;SDS011;2936;47.348;9.640;2023-07-16T07:12:33;3.17;;;1.93;;
5819;SDS011;2936;47.348;9.640;2023-07-16T07:15:02;2.20;;;2.10;;
5819;SDS011;2936;47.348;9.640;2023-07-16T07:17:30;3.03;;;2.10;;
5819;SDS011;2936;47.348;9.640;2023-07-16T07:19:57;3.83;;;2.10;;
5819;SDS011;2936;47.348;9.640;2023-07-16T07:22:24;2.20;;;2.10;;
5819;SDS011;2936;47.348;9.640;2023-07-16T07:24:52;2.23;;;2.13;;
5819;SDS011;2936;47.348;9.640;2023-07-16T07:27:19;2.30;;;2.20;;
5819;SDS011;2936;47.348;9.640;2023-07-16T07:29:48;2.00;;;1.90;;
5819;SDS011;2936;47.348;9.640;2023-07-16T07:32:17;2.37;;;2.20;;
5819;SDS011;2936;47.348;9.640;2023-07-16T07:34:44;2.40;;;2.30;;
5819;SDS011;2936;47.348;9.640;2023-07-16T07:37:11;2.50;;;2.40;;
5819;SDS011;2936;47.348;9.640;2023-07-16T07:39:39;2.47;;;2.27;;
5819;SDS011;2936;47.348;9.640;2023-07-16T07:42:06;2.20;;;2.10;;
5819;SDS011;2936;47.348;9.640;2023-07-16T07:44:35;6.20;;;1.90;;
5819;SDS011;2936;47.348;9.640;2023-07-16T07:47:04;2.20;;;2.10;;
5819;SDS011;2936;47.348;9.640;2023-07-16T07:49:33;2.43;;;2.23;;
5819;SDS011;2936;47.348;9.640;2023-07-16T07:52:00;4.60;;;2.10;;
5819;SDS011;2936;47.348;9.640;2023-07-16T07:54:28;2.30;;;2.10;;
5819;SDS011;2936;47.348;9.640;2023-07-16T07:56:55;2.53;;;2.33;;
5819;SDS011;2936;47.348;9.640;2023-07-16T07:59:22;2.27;;;2.17;;
5819;SDS011;2936;47.348;9.640;2023-07-16T08:01:49;2.33;;;2.23;;
5819;SDS011;2936;47.348;9.640;2023-07-16T08:04:18;2.20;;;2.10;;
5819;SDS011;2936;47.348;9.640;2023-07-16T08:06:45;2.20;;;2.10;;
5819;SDS011;2936;47.348;9.640;2023-07-16T08:09:13;2.50;;;2.40;;
5819;SDS011;2936;47.348;9.640;2023-07-16T08:11:40;3.47;;;2.33;;
5819;SDS011;2936;47.348;9.640;2023-07-16T08:14:07;2.23;;;2.13;;
5819;SDS011;2936;47.348;9.640;2023-07-16T08:16:35;2.10;;;2.00;;
5819;SDS011;2936;47.348;9.640;2023-07-16T08:19:02;1.87;;;1.77;;
5819;SDS011;2936;47.348;9.640;2023-07-16T08:21:31;2.03;;;1.93;;
5819;SDS011;2936;47.348;9.640;2023-07-16T08:23:59;2.57;;;2.47;;
5819;SDS011;2936;47.348;9.640;2023-07-16T08:26:26;2.30;;;2.20;;
5819;SDS011;2936;47.348;9.640;2023-07-16T08:28:53;2.23;;;2.07;;
5819;SDS011;2936;47.348;9.640;2023-07-16T08:31:21;2.30;;;2.00;;
5819;SDS011;2936;47.348;9.640;2023-07-16T08:33:48;2.30;;;2.20;;
5819;SDS011;2936;47.348;9.640;2023-07-16T08:36:15;1.90;;;1.80;;
5819;SDS011;2936;47.348;9.640;2023-07-16T08:38:44;2.30;;;2.10;;
5819;SDS011;2936;47.348;9.640;2023-07-16T08:41:11;2.40;;;1.73;;
5819;SDS011;2936;47.348;9.640;2023-07-16T08:43:39;2.60;;;2.30;;
5819;SDS011;2936;47.348;9.640;2023-07-16T08:46:06;2.00;;;1.90;;
5819;SDS011;2936;47.348;9.640;2023-07-16T08:48:34;2.50;;;2.40;;
5819;SDS011;2936;47.348;9.640;2023-07-16T08:51:02;2.23;;;2.13;;
5819;SDS011;2936;47.348;9.640;2023-07-16T08:53:29;2.33;;;2.10;;
5819;SDS011;2936;47.348;9.640;2023-07-16T08:55:58;2.20;;;2.10;;
5819;SDS011;2936;47.348;9.640;2023-07-16T08:58:27;2.80;;;2.20;;
5819;SDS011;2936;47.348;9.640;2023-07-16T09:00:55;2.03;;;1.93;;
5819;SDS011;2936;47.348;9.640;2023-07-16T09:03:23;4.60;;;2.30;;
5819;SDS011;2936;47.348;9.640;2023-07-16T09:05:50;2.03;;;1.93;;
5819;SDS011;2936;47.348;9.640;2023-07-16T09:08:17;2.60;;;1.77;;
5819;SDS011;2936;47.348;9.640;2023-07-16T09:10:52;2.57;;;2.40;;
5819;SDS011;2936;47.348;9.640;2023-07-16T09:13:21;2.40;;;2.27;;
5819;SDS011;2936;47.348;9.640;2023-07-16T09:15:52;2.43;;;2.23;;
5819;SDS011;2936;47.348;9.640;2023-07-16T09:18:20;3.63;;;2.20;;
5819;SDS011;2936;47.348;9.640;2023-07-16T09:20:47;2.10;;;2.00;;
5819;SDS011;2936;47.348;9.640;2023-07-16T09:23:16;4.73;;;2.30;;
5819;SDS011;2936;47.348;9.640;2023-07-16T09:25:44;2.83;;;2.50;;
5819;SDS011;2936;47.348;9.640;2023-07-16T09:28:11;2.40;;;2.30;;
5819;SDS011;2936;47.348;9.640;2023-07-16T09:30:40;2.27;;;2.10;;
5819;SDS011;2936;47.348;9.640;2023-07-16T09:33:10;2.00;;;1.90;;
5819;SDS011;2936;47.348;9.640;2023-07-16T09:35:38;2.57;;;2.47;;
5819;SDS011;2936;47.348;9.640;2023-07-16T09:38:06;2.20;;;2.10;;
5819;SDS011;2936;47.348;9.640;2023-07-16T09:40:34;2.40;;;2.20;;
5819;SDS011;2936;47.348;9.640;2023-07-16T09:43:01;2.40;;;2.30;;
5819;SDS011;2936;47.348;9.640;2023-07-16T09:45:29;2.30;;;2.20;;
5819;SDS011;2936;47.348;9.640;2023-07-16T09:47:58;3.90;;;2.07;;
5819;SDS011;2936;47.348;9.640;2023-07-16T09:50:26;2.57;;;2.37;;
5819;SDS011;2936;47.348;9.640;2023-07-16T09:52:54;2.50;;;2.30;;
5819;SDS011;2936;47.348;9.640;2023-07-16T09:55:22;2.10;;;2.00;;
5819;SDS011;2936;47.348;9.640;2023-07-16T09:57:51;3.47;;;2.37;;
5819;SDS011;2936;47.348;9.640;2023-07-16T10:00:19;2.20;;;2.10;;
5819;SDS011;2936;47.348;9.640;2023-07-16T10:02:47;2.40;;;2.30;;
5819;SDS011;2936;47.348;9.640;2023-07-16T10:05:17;2.60;;;2.27;;
5819;SDS011;2936;47.348;9.640;2023-07-16T10:07:49;3.90;;;2.30;;
5819;SDS011;2936;47.348;9.640;2023-07-16T10:10:17;2.30;;;2.20;;
5819;SDS011;2936;47.348;9.640;2023-07-16T10:12:54;2.00;;;1.90;;
5819;SDS011;2936;47.348;9.640;2023-07-16T10:15:25;3.67;;;2.20;;
5819;SDS011;2936;47.348;9.640;2023-07-16T10:17:52;2.13;;;2.03;;
5819;SDS011;2936;47.348;9.640;2023-07-16T10:20:29;2.03;;;1.93;;
5819;SDS011;2936;47.348;9.640;2023-07-16T10:22:57;2.13;;;2.03;;
5819;SDS011;2936;47.348;9.640;2023-07-16T10:25:25;2.90;;;2.37;;
5819;SDS011;2936;47.348;9.640;2023-07-16T10:27:53;2.43;;;2.33;;
5819;SDS011;2936;47.348;9.640;2023-07-16T10:30:21;2.60;;;2.40;;
5819;SDS011;2936;47.348;9.640;2023-07-16T10:32:50;2.80;;;2.60;;
5819;SDS011;2936;47.348;9.640;2023-07-16T10:35:17;3.23;;;2.33;;
5819;SDS011;2936;47.348;9.640;2023-07-16T10:37:46;2.17;;;2.07;;
5819;SDS011;2936;47.348;9.640;2023-07-16T10:40:14;2.10;;;2.00;;
5819;SDS011;2936;47.348;9.640;2023-07-16T10:42:41;1.70;;;1.60;;
5819;SDS011;2936;47.348;9.640;2023-07-16T10:45:09;2.30;;;2.20;;
5819;SDS011;2936;47.348;9.640;2023-07-16T10:47:37;2.40;;;2.20;;
5819;SDS011;2936;47.348;9.640;2023-07-16T10:50:06;2.30;;;2.20;;
5819;SDS011;2936;47.348;9.640;2023-07-16T10:52:38;4.50;;;2.13;;
5819;SDS011;2936;47.348;9.640;2023-07-16T10:55:07;2.30;;;2.20;;
5819;SDS011;2936;47.348;9.640;2023-07-16T10:57:34;2.47;;;2.30;;
5819;SDS011;2936;47.348;9.640;2023-07-16T11:00:03;2.20;;;2.10;;
5819;SDS011;2936;47.348;9.640;2023-07-16T11:02:30;2.40;;;2.20;;
5819;SDS011;2936;47.348;9.640;2023-07-16T11:04:58;4.73;;;2.57;;
5819;SDS011;2936;47.348;9.640;2023-07-16T11:07:28;5.23;;;2.63;;
5819;SDS011;2936;47.348;9.640;2023-07-16T11:09:56;2.57;;;2.37;;
5819;SDS011;2936;47.348;9.640;2023-07-16T11:12:25;2.37;;;2.27;;
5819;SDS011;2936;47.348;9.640;2023-07-16T11:14:53;3.00;;;2.07;;
5819;SDS011;2936;47.348;9.640;2023-07-16T11:17:21;2.27;;;2.17;;
5819;SDS011;2936;47.348;9.640;2023-07-16T11:19:50;2.70;;;2.50;;
5819;SDS011;2936;47.348;9.640;2023-07-16T11:22:17;2.23;;;2.13;;
5819;SDS011;2936;47.348;9.640;2023-07-16T11:24:45;3.27;;;2.63;;
5819;SDS011;2936;47.348;9.640;2023-07-16T11:27:13;3.70;;;2.30;;
5819;SDS011;2936;47.348;9.640;2023-07-16T11:29:46;2.50;;;2.00;;
5819;SDS011;2936;47.348;9.640;2023-07-16T11:32:13;3.00;;;2.10;;
5819;SDS011;2936;47.348;9.640;2023-07-16T11:34:53;3.03;;;1.87;;
5819;SDS011;2936;47.348;9.640;2023-07-16T11:37:21;6.30;;;2.30;;
5819;SDS011;2936;47.348;9.640;2023-07-16T11:39:48;2.50;;;2.30;;
5819;SDS011;2936;47.348;9.640;2023-07-16T11:42:18;2.07;;;1.97;;
5819;SDS011;2936;47.348;9.640;2023-07-16T11:44:49;2.70;;;2.23;;
5819;SDS011;2936;47.348;9.640;2023-07-16T11:47:17;2.50;;;2.37;;
5819;SDS011;2936;47.348;9.640;2023-07-16T11:49:44;2.77;;;2.57;;
5819;SDS011;2936;47.348;9.640;2023-07-16T11:52:12;2.27;;;2.17;;
5819;SDS011;2936;47.348;9.640;2023-07-16T11:54:39;2.47;;;2.37;;
5819;SDS011;2936;47.348;9.640;2023-07-16T11:57:06;2.43;;;2.33;;
5819;SDS011;2936;47.348;9.640;2023-07-16T11:59:34;3.60;;;2.80;;
5819;SDS011;2936;47.348;9.640;2023-07-16T12:02:03;2.60;;;2.37;;
5819;SDS011;2936;47.348;9.640;2023-07-16T12:04:30;2.33;;;2.03;;
5819;SDS011;2936;47.348;9.640;2023-07-16T12:06:57;3.43;;;2.43;;
5819;SDS011;2936;47.348;9.640;2023-07-16T12:09:24;2.23;;;2.03;;
5819;SDS011;2936;47.348;9.640;2023-07-16T12:11:52;2.30;;;2.20;;
5819;SDS011;2936;47.348;9.640;2023-07-16T12:14:19;5.73;;;2.53;;
5819;SDS011;2936;47.348;9.640;2023-07-16T12:16:46;6.40;;;2.90;;
5819;SDS011;2936;47.348;9.640;2023-07-16T12:19:15;2.63;;;2.43;;
5819;SDS011;2936;47.348;9.640;2023-07-16T12:21:43;2.63;;;2.40;;
5819;SDS011;2936;47.348;9.640;2023-07-16T12:24:10;2.20;;;2.10;;
5819;SDS011;2936;47.348;9.640;2023-07-16T12:26:37;2.83;;;2.63;;
5819;SDS011;2936;47.348;9.640;2023-07-16T12:29:05;2.53;;;2.33;;
5819;SDS011;2936;47.348;9.640;2023-07-16T12:31:32;3.60;;;2.37;;
5819;SDS011;2936;47.348;9.640;2023-07-16T12:34:00;6.90;;;3.10;;
5819;SDS011;2936;47.348;9.640;2023-07-16T12:36:29;2.53;;;2.33;;
5819;SDS011;2936;47.348;9.640;2023-07-16T12:38:56;2.70;;;2.50;;
5819;SDS011;2936;47.348;9.640;2023-07-16T12:41:24;2.47;;;2.37;;
5819;SDS011;2936;47.348;9.640;2023-07-16T12:43:51;3.07;;;2.50;;
5819;SDS011;2936;47.348;9.640;2023-07-16T12:46:18;2.77;;;2.57;;
5819;SDS011;2936;47.348;9.640;2023-07-16T12:48:46;3.00;;;2.53;;
5819;SDS011;2936;47.348;9.640;2023-07-16T12:51:13;2.90;;;2.70;;
5819;SDS011;2936;47.348;9.640;2023-07-16T12:53:42;4.37;;;2.43;;
5819;SDS011;2936;47.348;9.640;2023-07-16T12:56:10;4.20;;;2.80;;
5819;SDS011;2936;47.348;9.640;2023-07-16T12:58:37;2.17;;;2.07;;
5819;SDS011;2936;47.348;9.640;2023-07-16T13:01:04;2.90;;;2.37;;
5819;SDS011;2936;47.348;9.640;2023-07-16T13:03:33;2.20;;;2.00;;
5819;SDS011;2936;47.348;9.640;2023-07-16T13:06:00;2.53;;;2.33;;
5819;SDS011;2936;47.348;9.640;2023-07-16T13:08:28;3.23;;;2.93;;
5819;SDS011;2936;47.348;9.640;2023-07-16T13:13:45;2.80;;;2.60;;
5819;SDS011;2936;47.348;9.640;2023-07-16T13:16:12;2.70;;;2.50;;
5819;SDS011;2936;47.348;9.640;2023-07-16T13:18:40;2.80;;;2.60;;
5819;SDS011;2936;47.348;9.640;2023-07-16T13:21:09;3.10;;;2.60;;
5819;SDS011;2936;47.348;9.640;2023-07-16T13:23:36;3.60;;;2.80;;
5819;SDS011;2936;47.348;9.640;2023-07-16T13:26:04;2.80;;;2.60;;
5819;SDS011;2936;47.348;9.640;2023-07-16T13:28:32;2.87;;;2.67;;
5819;SDS011;2936;47.348;9.640;2023-07-16T13:31:01;1.97;;;1.87;;
5819;SDS011;2936;47.348;9.640;2023-07-16T13:33:28;2.37;;;2.27;;
5819;SDS011;2936;47.348;9.640;2023-07-16T13:35:55;2.40;;;2.20;;
5819;SDS011;2936;47.348;9.640;2023-07-16T13:38:26;2.87;;;2.37;;
5819;SDS011;2936;47.348;9.640;2023-07-16T13:40:53;4.87;;;2.40;;
5819;SDS011;2936;47.348;9.640;2023-07-16T13:43:21;2.50;;;2.10;;
5819;SDS011;2936;47.348;9.640;2023-07-16T13:45:48;2.33;;;2.20;;
5819;SDS011;2936;47.348;9.640;2023-07-16T13:48:17;3.17;;;2.33;;
5819;SDS011;2936;47.348;9.640;2023-07-16T13:50:44;2.83;;;2.63;;
5819;SDS011;2936;47.348;9.640;2023-07-16T13:53:11;2.40;;;2.20;;
5819;SDS011;2936;47.348;9.640;2023-07-16T13:55:39;2.60;;;2.50;;
5819;SDS011;2936;47.348;9.640;2023-07-16T13:58:08;2.47;;;2.37;;
5819;SDS011;2936;47.348;9.640;2023-07-16T14:00:36;1.70;;;1.60;;
5819;SDS011;2936;47.348;9.640;2023-07-16T14:03:03;2.30;;;2.20;;
5819;SDS011;2936;47.348;9.640;2023-07-16T14:05:32;3.20;;;2.43;;
5819;SDS011;2936;47.348;9.640;2023-07-16T14:08:04;2.60;;;2.50;;
5819;SDS011;2936;47.348;9.640;2023-07-16T14:10:37;2.67;;;2.47;;
5819;SDS011;2936;47.348;9.640;2023-07-16T14:13:08;2.50;;;2.30;;
5819;SDS011;2936;47.348;9.640;2023-07-16T14:15:36;2.33;;;2.23;;
5819;SDS011;2936;47.348;9.640;2023-07-16T14:18:04;2.20;;;2.10;;
5819;SDS011;2936;47.348;9.640;2023-07-16T14:20:34;2.40;;;2.20;;
5819;SDS011;2936;47.348;9.640;2023-07-16T14:23:01;2.30;;;2.20;;
5819;SDS011;2936;47.348;9.640;2023-07-16T14:25:28;2.57;;;2.37;;
5819;SDS011;2936;47.348;9.640;2023-07-16T14:27:56;2.80;;;2.60;;
5819;SDS011;2936;47.348;9.640;2023-07-16T14:30:23;2.50;;;2.40;;
5819;SDS011;2936;47.348;9.640;2023-07-16T14:32:50;2.73;;;2.63;;
5819;SDS011;2936;47.348;9.640;2023-07-16T14:35:18;4.03;;;2.23;;
5819;SDS011;2936;47.348;9.640;2023-07-16T14:37:46;2.30;;;2.20;;
5819;SDS011;2936;47.348;9.640;2023-07-16T14:40:14;2.67;;;2.47;;
5819;SDS011;2936;47.348;9.640;2023-07-16T14:42:42;2.73;;;2.37;;
5819;SDS011;2936;47.348;9.640;2023-07-16T14:45:10;2.87;;;2.70;;
5819;SDS011;2936;47.348;9.640;2023-07-16T14:47:37;2.30;;;2.20;;
5819;SDS011;2936;47.348;9.640;2023-07-16T14:50:04;3.03;;;2.50;;
5819;SDS011;2936;47.348;9.640;2023-07-16T14:52:32;3.17;;;2.43;;
5819;SDS011;2936;47.348;9.640;2023-07-16T14:55:01;2.57;;;2.30;;
5819;SDS011;2936;47.348;9.640;2023-07-16T14:57:29;3.73;;;2.83;;
5819;SDS011;2936;47.348;9.640;2023-07-16T14:59:56;2.70;;;2.53;;
5819;SDS011;2936;47.348;9.640;2023-07-16T15:02:24;2.97;;;2.77;;
5819;SDS011;2936;47.348;9.640;2023-07-16T15:04:51;5.90;;;2.63;;
5819;SDS011;2936;47.348;9.640;2023-07-16T15:07:19;4.07;;;3.37;;
5819;SDS011;2936;47.348;9.640;2023-07-16T15:09:46;3.10;;;2.77;;
5819;SDS011;2936;47.348;9.640;2023-07-16T15:12:15;3.17;;;2.97;;
5819;SDS011;2936;47.348;9.640;2023-07-16T15:14:42;2.97;;;2.77;;
5819;SDS011;2936;47.348;9.640;2023-07-16T15:17:09;2.93;;;2.67;;
5819;SDS011;2936;47.348;9.640;2023-07-16T15:19:37;3.30;;;2.70;;
5819;SDS011;2936;47.348;9.640;2023-07-16T15:22:04;3.27;;;2.97;;